Terminal Aerodrome Forecast
Issued by NWS

Home | Current Version | Previous Version | Text Only | Print | Product List | Glossary On
Versions: 1 2 3 4 5 6 7 8 9 10 11 12 13 14 15 16 17 18 19 20
000
FTUS42 KTAE 231100
TAFVLD
TAF
KVLD 231137Z 2312/2412 04008KT P6SM SCT030
     FM231500 05007KT P6SM BKN025
     FM231700 04010G17KT P6SM SCT030 BKN250
     FM240300 05008KT P6SM SCT025
     FM240600 04007KT P6SM BKN025
     FM241000 04006KT P6SM BKN015=

USA.gov is the U.S. government's official web portal to all federal, state and local government web resources and services.